Terminal Aerodrome Forecast
Issued by NWS Wichita, KS

Home | Current Version | Previous Version | Text Only | Print | Product List | Glossary On
Versions: 1 2 3 4 5 6 7 8 9 10 11 12 13 14 15 16 17 18 19 20
326
FTUS43 KICT 181730
TAFICT
TAF
KICT 181730Z 1818/1918 17008KT P6SM SCT080
     FM190400 16008KT 6SM BR SCT015 BKN040
     FM190600 16007KT 5SM BR SCT008 BKN015
     FM190900 16006KT 4SM BR OVC008
      TEMPO 1910/1914 1SM BR BKN004=

USA.gov is the U.S. government's official web portal to all federal, state and local government web resources and services.